AddedLatest Added eBooks:

  1. 2021-10-10Reason Re Rob Papen Predatorre V1 0 20 Win - Removed
  2. 2021-10-10Paint Net 4 3 Multilingual
  3. 2021-10-10Videoproc Converter 4 3 Macos
  4. 2021-10-10Multisituated Ethnography as Diasporic Praxis
  5. 2021-10-10Tunecable Spotify Downloader V1 4 0 Multilingual
  6. 2021-10-10Seagate Toolkit 1 23 0 17
  7. 2021-10-10Plaxis Le Connect Edition V21 Update 2 (21 02 00 170)
  8. 2021-10-10Nch Videopad Video Editor Professional 10 83 Beta
  9. 2021-10-10Statplus Pro Version 7 3 0 0 Multilingual
  10. 2021-10-10Muscarinic Receptor Subtypes in Smooth Muscle
  11. 2021-10-10Softany Wordtohelp Version 3 27
  12. 2021-10-10Im Your Man 2021 HDRip XviD AC3-EVO
  13. 2021-10-10Sqlite Maestro Professional 21 5 0 2 Multilinguage
  14. 2021-10-10Overloud Gem Mod V1 0 0 Win Osx
  15. 2021-10-10Tg Pro (temperature Gauge Pro) V2 60 Macos
  16. 2021-10-10Tightvnc 2 8 63
  17. 2021-10-11Theaeroclock 7 41 Multilingual
  18. 2021-10-11Noteburner Itunes Drm Audio Converter 4 6 0 Multilingual
  19. 2021-10-11Music and Instruments of the Middle Ages Essays in Honour of Christopher Page
  20. 2021-10-11Resumemaker Professional Deluxe 20 1 4 185 Portable
  21. 2021-10-11Silent Install Builder 6 1 0 Beta Portable
  22. 2021-10-11Nova 7 5 Macos
  23. 2021-10-11On the Take How Medicine's Complicity with Big Business Can Endanger Your Health
  24. 2021-10-11Ultravnc V1 3 4 1
  25. 2021-10-11Tweakpower 2 001 Multilingual
  26. 2021-10-11Togu Audio Line Tal Bassline 101 3 5 3 (x64)
  27. 2021-10-11Soundop Audio Editor 1 8 4 0
  28. 2021-10-11Reason Re Rob Papen Rpverb V1 0 7 Win - Removed
  29. 2021-10-11Platform Strategy Transform Your Business with AI, Platforms and Human Intelligence
  30. 2021-10-11Notebooks 2 4 3 Macos
  31. 2021-10-11Tenorshare Ultdata For Ios 9 4 5 3
  32. 2021-10-11Tableplus 4 3 1 Build 178
  33. 2021-10-11Practical Medical Oncology Textbook [EPUB] - Removed
  34. 2021-10-11Valentina Studio Pro 11 4 5 Multilingual
  35. 2021-10-11Sync Folders Pro 4 5 2 Macos
  36. 2021-10-11Opencloner Ripper 2021 4 30 115 (x64)
  37. 2021-10-11Noteburner Line Music Converter 1 2 0 Multilinguage
  38. 2021-10-11Print My Fonts 21 9 28
  39. 2021-10-11Samemovie Hulu Video Downloader 1 0 1 Multilingual
  40. 2021-10-11Paw Http Client 3 3 0 Macos
  41. 2021-10-11Samemovie Disneyplus Video Downloader 1 0 3 Multilingual
  42. 2021-10-11Principles of Microeconomics, Global Edition, 13th Edition - Removed
  43. 2021-10-11Pc Cleaning Utility Pro Version 3 7 8 Premium Multilingual
  44. 2021-10-11R Wipe & Clean 20 0 Build 2333
  45. 2021-10-11Tunepat Spotify Converter 1 5 0 Multilinguage
  46. 2021-10-11Im Your Man 2021 1080p AMZN WEB-DL DDP5 1 H 264-EVO
  47. 2021-10-11Tunepat Amazon Music Converter V2 4 0 Multilingual
  48. 2021-10-11Programming C computer technology
  49. 2021-10-11Rainlendar Pro 2 17 Build 169 Multilingual
  50. 2021-10-11The Simpsons S33E03 720p HEVC x265-MeGusta
  51. 2021-10-11Ruin Me 2017 1080p WEBRip x265-RARBG
  52. 2021-10-11Reason Re Rob Papen Vecto V1 0 9 Win - Removed
  53. 2021-10-11Passfab Ios Password Manager Version 2 0 1 11 Multilingual
  54. 2021-10-11Tunecable Spotify Downloader 1 4 0 Multilingual
  55. 2021-10-11Survivor S28E06 1080p HEVC x265-MeGusta
  56. 2021-10-11Nsis (nullsoft Scriptable Install System) 3 08
  57. 2021-10-11Psychopharmacology A mental health professionals guide to commonly used medications, 2nd Edition
  58. 2021-10-11Prima Cartoonizer 4 1 9 (x64) Portable - Removed
  59. 2021-10-11Hell Hunters 1986 1080p WEBRip x265-RARBG
  60. 2021-10-11Fatal Trust 2006 1080p WEBRip x265-RARBG
  61. 2021-10-11Tracktion Software F Em V1 0 8 Factory Content
  62. 2021-10-11Ultravnc 1 3 4 1
  63. 2021-10-11Easy Chinese Reader 2 (simplified Chinese) Learn Chinese With Elena Laoshi
  64. 2021-10-11On1 Photo Raw 2022 16 0 1 11137 Macos
  65. 2021-10-11Belichick and Saban The Art of Coaching 2019 1080p WEBRip x265-RARBG
  66. 2021-10-11Sketch 77 Macos
  67. 2021-10-11Video Editor Pro 6 8 3 343 342 Multilingual
  68. 2021-10-11Sandscomputing Sewwhat Pro 4 5 0 092121 Multilingual
  69. 2021-10-11Dark Money 2018 1080p WEBRip x265-RARBG
  70. 2021-10-11Turbomosaic V3 6 6 0 Home Advanced Professional Professional Plus Edition
  71. 2021-10-117 Chinese Brothers 2015 1080p WEBRip x265-RARBG
  72. 2021-10-117 20 Once a Week 2018 SPANISH ENSUBBED 1080p WEBRip x265-VXT
  73. 2021-10-11Soundevice Digital Subbassdoctor808 2 1
  74. 2021-10-11Android App Development - Build a Calculator App
  75. 2021-10-11F R E D I 2018 1080p WEBRip x265-RARBG
  76. 2021-10-11Rarmaradio Pro 2 73 1 Multilingual
  77. 2021-10-11Long Gone Wild 2019 1080p WEBRip x265-RARBG
  78. 2021-10-11Naughty Books 2020 1080p WEBRip x265-RARBG
  79. 2021-10-11Sensei 1 5 Macos
  80. 2021-10-11Richardson Razorsql 9 4 7
  81. 2021-10-11Usb Secure V2 2 1
  82. 2021-10-11Enticing random Pearls of Machine Learning-The gist of 21-22
  83. 2021-10-11Photofiltre Studio 11 3 0 (x64) Portable
  84. 2021-10-11Tenorshare 4ukey Itunes Backup 5 2 13 1 Multilingual
  85. 2021-10-11Overloud Gem Voice 1 0 3
  86. 2021-10-11Passfab Iphone Unlocker Version 3 0 6 14 Multilingual
  87. 2021-10-11Faith in Destiny 2012 1080p WEBRip x265-RARBG
  88. 2021-10-11Machine learning with python [Data Science] - Udemy
  89. 2021-10-11Tunecable Imusic Converter 1 6 0 Multilingual
  90. 2021-10-11Family Demons 2009 1080p WEBRip x265-RARBG
  91. 2021-10-11The Atom a Love Story 2019 1080p WEBRip x265-RARBG
  92. 2021-10-11Toneboosters Plugin Bundle 1 5 8 (x64)
  93. 2021-10-11The Last Bus 2021 1080p WEBRip x265-RARBG
  94. 2021-10-11Solid State Logic Native Channel Strip 2 V1 0 55
  95. 2021-10-11Uhe Repro 1 1 1 2 12092
  96. 2021-10-11Richardson Software Razorsql 9 4 7
  97. 2021-10-11The Power 2021 1080p BluRay x265-RARBG
  98. 2021-10-11Practical Regular Expressions from Zero to Hero
  99. 2021-10-11South Beach Love 2021 1080p WEBRip x265-RARBG

More eBooks ...

51126 pages, 5112530 eBooks in total, list all pages->

Search free ebooks in ebookee.com!
Back to Top